Terminal Aerodrome Forecast
Issued by NWS

Home | Current Version | Previous Version | Graphics & Text | Print | Product List | Glossary On
Versions: 1 2 3 4 5 6 7 8 9 10 11 12 13 14 15
000
FTUS43 KLSX 040500
TAFSUS
TAF
KSUS 040531Z 0406/0506 20010KT P6SM SCT120 BKN250
     FM041200 21010KT P6SM VCSH BKN080
     FM041500 21012G20KT P6SM SCT150 BKN250
     FM042300 20010KT P6SM SCT150 BKN250=

USA.gov is the U.S. government's official web portal to all federal, state and local government web resources and services.